Time;durP1;ratioP1;P1;durP2;ratioP2;P2;SDS_P1;SDS_P2;PMS_P1;PMS_P2;Temp;Humidity;BMP_temperature;BMP_pressure;BME280_temperature;BME280_humidity;BME280_pressure;Samples;Min_cycle;Max_cycle;Signal;HPM_P1;HPM_P2
2023/06/01 00:02:04;;;;;;;;;;;;;;;15.83;31.22;100932.91;4936073;27;97825;-65
2023/06/01 00:04:31;;;;;;;;;;;;;;;15.79;31.13;100938.09;4948279;28;98074;-70
2023/06/01 00:06:59;;;;;;;;;;;;;;;15.75;31.26;100928.09;4954121;27;98726;-65
2023/06/01 00:09:25;;;;;;;;;;;;;;;15.70;31.12;100932.50;4940540;27;98525;-65
2023/06/01 00:11:52;;;;;;;;;;;;;;;15.66;31.40;100936.09;4950592;27;98416;-64
2023/06/01 00:14:18;;;;;;;;;;;;;;;15.60;31.51;100932.59;4949133;27;98178;-69
2023/06/01 00:16:45;;;;;;;;;;;;;;;15.55;31.19;100934.56;4954643;27;98379;-66
2023/06/01 00:19:11;;;;;;;;;;;;;;;15.53;31.36;100942.22;4956510;27;98349;-69
2023/06/01 00:21:39;;;;;;;;;;;;;;;15.49;31.45;100933.81;4953827;27;98240;-65
2023/06/01 00:24:05;;;;;;;;;;;;;;;15.51;31.21;100937.03;4950051;28;98265;-69
2023/06/01 00:26:32;;;;;;;;;;;;;;;15.50;31.15;100935.44;4950658;27;98373;-69
2023/06/01 00:28:59;;;;;;;;;;;;;;;15.49;31.15;100943.88;4971258;28;97979;-69
2023/06/01 00:31:26;;;;;;;;;;;;;;;15.46;31.04;100942.53;4967720;28;98099;-65
2023/06/01 00:33:52;;;;;;;;;;;;;;;15.45;31.31;100935.50;4977719;27;97868;-65
2023/06/01 00:36:20;;;;;;;;;;;;;;;15.44;31.16;100942.00;4956017;27;98407;-65
2023/06/01 00:38:46;;;;;;;;;;;;;;;15.38;31.34;100940.47;4966024;27;98247;-70
2023/06/01 00:41:14;;;;;;;;;;;;;;;15.31;31.19;100943.50;4947904;28;98420;-66
2023/06/01 00:43:41;;;;;;;;;;;;;;;15.25;31.56;100933.81;4946823;27;98986;-66
2023/06/01 00:46:08;;;;;;;;;;;;;;;15.21;31.26;100943.63;4950255;27;99485;-69
2023/06/01 00:48:34;;;;;;;;;;;;;;;15.17;31.17;100942.56;4945496;27;98240;-67
2023/06/01 00:51:00;;;;;;;;;;;;;;;15.13;31.47;100941.50;4951446;27;98136;-66
2023/06/01 00:53:26;;;;;;;;;;;;;;;15.08;31.58;100931.50;4981194;27;98038;-69
2023/06/01 00:55:52;;;;;;;;;;;;;;;15.02;31.25;100923.72;4946025;28;99381;-69
2023/06/01 00:58:19;;;;;;;;;;;;;;;14.92;31.43;100930.84;4966994;27;98172;-69
2023/06/01 01:00:47;;;;;;;;;;;;;;;14.88;31.45;100928.97;4945376;27;97971;-65
2023/06/01 01:03:15;;;;;;;;;;;;;;;14.81;31.62;100925.78;4946488;27;100152;-65
2023/06/01 01:05:41;;;;;;;;;;;;;;;14.77;31.63;100924.72;4969046;27;98607;-69
2023/06/01 01:08:16;;;;;;;;;;;;;;;14.72;31.58;100925.59;4945890;28;98109;-65
2023/06/01 01:11:03;;;;;;;;;;;;;;;14.67;31.60;100921.00;4951758;27;97896;-65
2023/06/01 01:13:38;;;;;;;;;;;;;;;14.63;31.59;100922.69;4962277;27;98100;-65
2023/06/01 01:16:34;;;;;;;;;;;;;;;14.58;31.35;100925.44;4965310;27;98889;-65
2023/06/01 01:19:00;;;;;;;;;;;;;;;14.55;31.30;100928.72;4965900;27;97879;-69
2023/06/01 01:21:30;;;;;;;;;;;;;;;14.53;31.35;100922.75;4984007;27;98596;-69
2023/06/01 01:24:06;;;;;;;;;;;;;;;14.51;31.69;100921.41;4947445;27;98122;-69
2023/06/01 01:26:54;;;;;;;;;;;;;;;14.48;31.75;100918.13;4970077;28;98024;-65
2023/06/01 01:29:22;;;;;;;;;;;;;;;14.45;31.46;100917.88;4963398;27;98123;-65
2023/06/01 01:31:49;;;;;;;;;;;;;;;14.42;31.56;100919.28;4967612;27;98637;-70
2023/06/01 01:34:15;;;;;;;;;;;;;;;14.41;31.34;100924.97;4938113;27;99311;-69
2023/06/01 01:36:42;;;;;;;;;;;;;;;14.40;31.83;100924.16;4944345;28;98097;-65
2023/06/01 01:39:09;;;;;;;;;;;;;;;14.39;31.74;100925.25;4930997;28;98677;-69
2023/06/01 01:41:35;;;;;;;;;;;;;;;14.37;31.66;100932.84;4980997;27;98250;-69
2023/06/01 01:44:02;;;;;;;;;;;;;;;14.35;31.73;100928.81;4954274;27;102940;-65
2023/06/01 01:46:30;;;;;;;;;;;;;;;14.35;31.78;100921.50;4953315;28;98205;-69
2023/06/01 01:49:09;;;;;;;;;;;;;;;14.35;31.88;100929.63;4964821;28;97981;-69
2023/06/01 01:51:50;;;;;;;;;;;;;;;14.36;31.60;100930.44;4980862;27;97915;-69
2023/06/01 01:54:20;;;;;;;;;;;;;;;14.36;31.76;100942.09;4951960;27;98245;-65
2023/06/01 01:56:46;;;;;;;;;;;;;;;14.35;31.58;100940.47;4947297;27;97991;-69
2023/06/01 01:59:12;;;;;;;;;;;;;;;14.34;31.47;100932.59;4944914;27;99927;-69
2023/06/01 02:01:41;;;;;;;;;;;;;;;14.33;31.63;100936.41;4978560;27;97846;-69
2023/06/01 02:04:08;;;;;;;;;;;;;;;14.29;31.39;100928.03;4951528;27;98061;-69
2023/06/01 02:06:36;;;;;;;;;;;;;;;14.25;31.63;100925.06;4952176;27;98081;-66
2023/06/01 02:09:08;;;;;;;;;;;;;;;14.21;31.73;100923.19;4945840;27;97977;-70
2023/06/01 02:11:35;;;;;;;;;;;;;;;14.17;31.50;100922.94;4968822;27;98324;-70
2023/06/01 02:14:02;;;;;;;;;;;;;;;14.14;31.79;100918.06;4936887;27;98072;-66
2023/06/01 02:16:29;;;;;;;;;;;;;;;14.11;31.69;100918.66;4952550;27;100069;-70
2023/06/01 02:18:57;;;;;;;;;;;;;;;14.07;31.65;100912.19;4950216;27;98209;-71
2023/06/01 02:21:24;;;;;;;;;;;;;;;14.06;31.83;100912.44;4952881;27;98229;-66
2023/06/01 02:23:50;;;;;;;;;;;;;;;14.04;31.82;100909.22;4937651;27;98050;-69
2023/06/01 02:26:18;;;;;;;;;;;;;;;14.01;31.70;100918.69;4945287;27;98446;-70
2023/06/01 02:28:44;;;;;;;;;;;;;;;14.01;31.73;100910.56;4967049;27;97978;-70
2023/06/01 02:31:10;;;;;;;;;;;;;;;13.99;31.54;100907.34;4948776;27;98137;-70
2023/06/01 02:33:37;;;;;;;;;;;;;;;13.97;31.76;100899.47;4962295;27;98277;-65
2023/06/01 02:36:03;;;;;;;;;;;;;;;13.95;32.09;100890.84;4965768;28;98276;-66
2023/06/01 02:38:29;;;;;;;;;;;;;;;13.94;31.88;100901.94;4982443;27;97983;-70
2023/06/01 02:40:55;;;;;;;;;;;;;;;13.93;31.50;100909.25;4953851;27;98295;-69
2023/06/01 02:43:21;;;;;;;;;;;;;;;13.94;31.81;100908.16;4948858;28;98229;-66
2023/06/01 02:45:47;;;;;;;;;;;;;;;13.95;31.70;100915.22;4951835;27;98165;-65
2023/06/01 02:48:14;;;;;;;;;;;;;;;13.95;31.98;100914.38;4945295;27;106216;-65
2023/06/01 02:50:42;;;;;;;;;;;;;;;13.96;31.72;100910.59;4949730;27;98432;-66
2023/06/01 02:53:08;;;;;;;;;;;;;;;13.96;31.67;100913.31;4946081;27;97937;-66
2023/06/01 02:55:35;;;;;;;;;;;;;;;13.97;31.64;100914.94;4945932;27;100036;-66
2023/06/01 02:58:01;;;;;;;;;;;;;;;13.98;31.92;100908.41;4950172;27;98245;-70
2023/06/01 03:00:27;;;;;;;;;;;;;;;13.95;31.71;100898.97;4946578;27;110527;-66
2023/06/01 03:02:54;;;;;;;;;;;;;;;13.93;31.83;100889.47;4965487;27;98015;-70
2023/06/01 03:05:21;;;;;;;;;;;;;;;13.90;31.74;100890.84;4946686;27;98353;-70
2023/06/01 03:07:48;;;;;;;;;;;;;;;13.90;31.81;100895.44;4947210;27;97977;-70
2023/06/01 03:10:15;;;;;;;;;;;;;;;13.90;31.85;100900.88;4944576;27;98206;-66
2023/06/01 03:12:41;;;;;;;;;;;;;;;13.92;31.98;100896.00;4949275;27;97847;-69
2023/06/01 03:15:07;;;;;;;;;;;;;;;13.94;31.63;100900.03;4951389;27;98048;-65
2023/06/01 03:17:34;;;;;;;;;;;;;;;13.98;31.88;100897.56;4953996;27;97980;-66
2023/06/01 03:20:00;;;;;;;;;;;;;;;14.07;31.85;100895.06;4970132;27;98397;-70
2023/06/01 03:22:26;;;;;;;;;;;;;;;14.17;31.66;100900.44;4970452;27;98247;-70
2023/06/01 03:24:54;;;;;;;;;;;;;;;14.27;32.05;100903.09;4982868;27;98248;-66
2023/06/01 03:27:21;;;;;;;;;;;;;;;14.35;31.51;100897.09;4946242;27;97994;-69
2023/06/01 03:29:47;;;;;;;;;;;;;;;14.45;31.98;100898.91;4950815;27;99107;-66
2023/06/01 03:32:14;;;;;;;;;;;;;;;14.51;32.04;100902.44;4967384;28;97810;-65
2023/06/01 03:34:41;;;;;;;;;;;;;;;14.55;32.07;100896.16;4970812;27;98139;-66
2023/06/01 03:37:08;;;;;;;;;;;;;;;14.59;31.94;100897.22;4954406;27;98149;-65
2023/06/01 03:39:35;;;;;;;;;;;;;;;14.64;32.05;100907.19;4953717;27;98737;-71
2023/06/01 03:42:01;;;;;;;;;;;;;;;14.66;31.72;100903.13;4935621;27;98281;-70
2023/06/01 03:44:28;;;;;;;;;;;;;;;14.67;31.83;100903.94;4954391;28;98123;-69
2023/06/01 03:46:54;;;;;;;;;;;;;;;14.67;32.05;100904.75;4947825;28;98129;-66
2023/06/01 03:49:21;;;;;;;;;;;;;;;14.70;31.87;100904.19;4954007;28;98325;-66
2023/06/01 03:51:48;;;;;;;;;;;;;;;14.74;31.72;100904.41;4954833;27;98151;-66
2023/06/01 03:54:14;;;;;;;;;;;;;;;14.77;31.93;100898.41;4948091;27;98386;-70
2023/06/01 03:56:41;;;;;;;;;;;;;;;14.78;32.04;100897.31;4950765;28;98093;-70
2023/06/01 03:59:10;;;;;;;;;;;;;;;14.83;31.62;100893.75;4945651;27;97931;-66
2023/06/01 04:01:39;;;;;;;;;;;;;;;14.85;31.70;100896.97;4948621;27;97919;-70
2023/06/01 04:04:08;;;;;;;;;;;;;;;14.89;31.76;100896.13;4967257;27;99518;-70
2023/06/01 04:06:37;;;;;;;;;;;;;;;14.90;32.00;100895.03;4947996;28;98311;-66
2023/06/01 04:09:06;;;;;;;;;;;;;;;14.94;31.75;100889.84;4967705;27;98598;-67
2023/06/01 04:11:33;;;;;;;;;;;;;;;15.00;31.65;100893.31;4966261;28;98346;-66
2023/06/01 04:14:00;;;;;;;;;;;;;;;15.03;31.86;100890.84;4937429;27;98361;-70
2023/06/01 04:16:27;;;;;;;;;;;;;;;15.07;31.99;100882.94;4947570;27;99952;-70
2023/06/01 04:18:53;;;;;;;;;;;;;;;15.10;31.67;100894.03;4954092;27;97957;-70
2023/06/01 04:21:25;;;;;;;;;;;;;;;15.14;31.72;100891.56;4950894;27;98585;-66
2023/06/01 04:23:51;;;;;;;;;;;;;;;15.19;31.95;100896.94;4951405;27;98063;-70
2023/06/01 04:26:19;;;;;;;;;;;;;;;15.22;31.71;100899.88;4947714;27;99530;-67
2023/06/01 04:28:46;;;;;;;;;;;;;;;15.27;31.52;100893.56;4963845;27;98696;-70
2023/06/01 04:31:19;;;;;;;;;;;;;;;15.35;31.85;100897.56;4935541;27;99341;-70
2023/06/01 04:33:52;;;;;;;;;;;;;;;15.41;32.00;100905.38;4953449;28;98521;-70
2023/06/01 04:36:21;;;;;;;;;;;;;;;15.47;31.73;100903.41;4968007;27;98753;-70
2023/06/01 04:38:51;;;;;;;;;;;;;;;15.52;31.85;100902.53;4952111;27;97998;-70
2023/06/01 04:41:20;;;;;;;;;;;;;;;15.54;31.77;100908.50;4963414;28;99183;-66
2023/06/01 04:43:51;;;;;;;;;;;;;;;15.59;31.85;100903.00;4948372;27;98285;-66
2023/06/01 04:46:19;;;;;;;;;;;;;;;15.64;31.59;100906.47;4945748;27;98351;-70
2023/06/01 04:48:46;;;;;;;;;;;;;;;15.69;31.76;100903.72;4964500;27;101499;-67
2023/06/01 04:51:19;;;;;;;;;;;;;;;15.75;31.84;100906.38;4947515;27;99559;-70
2023/06/01 04:53:49;;;;;;;;;;;;;;;15.81;31.73;100903.28;4960543;28;98443;-70
2023/06/01 04:56:18;;;;;;;;;;;;;;;15.90;31.61;100903.44;4960415;27;98396;-70
2023/06/01 04:58:47;;;;;;;;;;;;;;;15.98;31.60;100908.22;4950221;27;98471;-67
2023/06/01 05:01:15;;;;;;;;;;;;;;;16.07;31.63;100903.78;4942770;27;98500;-67
2023/06/01 05:03:42;;;;;;;;;;;;;;;16.18;31.48;100898.97;4936984;27;98378;-67
2023/06/01 05:06:11;;;;;;;;;;;;;;;16.30;31.37;100895.81;4962822;28;98319;-70
2023/06/01 05:08:38;;;;;;;;;;;;;;;16.45;31.40;100901.84;4966217;27;98008;-71
2023/06/01 05:11:04;;;;;;;;;;;;;;;16.62;31.23;100895.03;4956382;27;98022;-67
2023/06/01 05:13:30;;;;;;;;;;;;;;;16.77;31.42;100888.56;4949165;27;98170;-71
2023/06/01 05:15:56;;;;;;;;;;;;;;;16.96;31.24;100892.03;4950944;27;98294;-70
2023/06/01 05:18:22;;;;;;;;;;;;;;;17.17;31.06;100887.00;4950727;28;112346;-71
2023/06/01 05:20:49;;;;;;;;;;;;;;;17.40;30.95;100883.28;4961221;27;98030;-70
2023/06/01 05:23:15;;;;;;;;;;;;;;;17.63;31.05;100884.19;4945702;27;98139;-71
2023/06/01 05:25:41;;;;;;;;;;;;;;;17.86;30.95;100887.03;4940566;28;99306;-67
2023/06/01 05:28:07;;;;;;;;;;;;;;;18.09;30.92;100888.69;4945317;27;98253;-67
2023/06/01 05:30:35;;;;;;;;;;;;;;;18.29;30.59;100883.88;4943618;27;98283;-71
2023/06/01 05:33:01;;;;;;;;;;;;;;;18.49;30.76;100885.31;4947338;27;99658;-67
2023/06/01 05:35:27;;;;;;;;;;;;;;;18.69;30.59;100879.34;4964422;27;98198;-67
2023/06/01 05:37:54;;;;;;;;;;;;;;;18.94;30.50;100871.63;4949520;28;98285;-71
2023/06/01 05:40:21;;;;;;;;;;;;;;;19.19;30.59;100875.63;4948257;28;98324;-67
2023/06/01 05:42:48;;;;;;;;;;;;;;;19.45;30.57;100879.25;4946645;28;100410;-67
2023/06/01 05:45:14;;;;;;;;;;;;;;;19.73;30.51;100868.09;4945236;28;98545;-67
2023/06/01 05:47:40;;;;;;;;;;;;;;;20.01;30.35;100869.44;4943766;28;98386;-71
2023/06/01 05:50:07;;;;;;;;;;;;;;;20.35;30.48;100873.28;4941226;28;98068;-67
2023/06/01 05:52:33;;;;;;;;;;;;;;;20.73;30.44;100865.19;4973407;28;98042;-68
2023/06/01 05:55:00;;;;;;;;;;;;;;;21.15;30.28;100867.34;4955139;27;98188;-68
2023/06/01 05:57:27;;;;;;;;;;;;;;;21.60;30.30;100869.53;4945458;27;99338;-71
2023/06/01 05:59:54;;;;;;;;;;;;;;;22.04;30.22;100876.34;4950483;28;98020;-68
2023/06/01 06:02:21;;;;;;;;;;;;;;;22.54;29.96;100873.50;4960234;28;98091;-67
2023/06/01 06:04:47;;;;;;;;;;;;;;;23.20;30.09;100872.66;4945516;27;97936;-71
2023/06/01 06:07:14;;;;;;;;;;;;;;;25.57;28.38;100869.06;4940595;28;98074;-68
2023/06/01 06:09:42;;;;;;;;;;;;;;;25.65;28.48;100870.84;4963088;27;98220;-69
2023/06/01 06:12:09;;;;;;;;;;;;;;;25.49;28.85;100873.63;4974517;27;98449;-71
2023/06/01 06:14:35;;;;;;;;;;;;;;;26.20;28.73;100871.66;4944248;27;98118;-69
2023/06/01 06:17:02;;;;;;;;;;;;;;;26.47;28.97;100869.06;4942937;27;97974;-71
2023/06/01 06:19:34;;;;;;;;;;;;;;;27.28;28.84;100868.94;4942113;27;97916;-68
2023/06/01 06:22:00;;;;;;;;;;;;;;;28.04;28.58;100866.88;4941564;27;98461;-72
2023/06/01 06:24:26;;;;;;;;;;;;;;;28.90;28.07;100873.38;4947783;28;98108;-70
2023/06/01 06:26:53;;;;;;;;;;;;;;;29.26;28.36;100871.72;4930324;28;98063;-70
2023/06/01 06:29:19;;;;;;;;;;;;;;;29.36;28.40;100875.75;4964161;27;100277;-72
2023/06/01 06:31:45;;;;;;;;;;;;;;;29.97;28.31;100868.59;4940242;28;97937;-72
2023/06/01 06:34:12;;;;;;;;;;;;;;;31.61;26.97;100873.66;4943016;28;99998;-72
2023/06/01 06:36:38;;;;;;;;;;;;;;;32.49;26.58;100879.31;4951080;27;99347;-69
2023/06/01 06:39:05;;;;;;;;;;;;;;;32.17;26.80;100877.47;4972762;28;98227;-69
2023/06/01 06:41:32;;;;;;;;;;;;;;;31.78;27.31;100869.22;4943672;27;99051;-69
2023/06/01 06:43:58;;;;;;;;;;;;;;;31.44;27.71;100866.09;4941396;28;100097;-72
2023/06/01 06:46:26;;;;;;;;;;;;;;;31.37;28.04;100863.34;4948354;27;98222;-68
2023/06/01 06:48:54;;;;;;;;;;;;;;;31.31;28.05;100860.16;4958297;27;99581;-69
2023/06/01 06:51:21;;;;;;;;;;;;;;;31.26;28.07;100858.56;4945774;27;98319;-69
2023/06/01 06:53:47;;;;;;;;;;;;;;;31.36;28.02;100854.22;4931732;27;99332;-72
2023/06/01 06:56:14;;;;;;;;;;;;;;;31.57;28.09;100856.16;4944194;27;99885;-69
2023/06/01 06:58:40;;;;;;;;;;;;;;;31.98;27.84;100855.63;4980509;27;97872;-72
2023/06/01 07:01:06;;;;;;;;;;;;;;;32.42;27.66;100843.91;4958170;27;97988;-69
2023/06/01 07:03:35;;;;;;;;;;;;;;;32.79;27.19;100856.41;4946961;27;98370;-69
2023/06/01 07:06:03;;;;;;;;;;;;;;;33.23;27.32;100843.69;4932722;28;98034;-69
2023/06/01 07:08:34;;;;;;;;;;;;;;;33.68;26.82;100849.22;4970800;27;98984;-67
2023/06/01 07:11:01;;;;;;;;;;;;;;;34.01;27.17;100844.88;4974689;27;100443;-67
2023/06/01 07:13:28;;;;;;;;;;;;;;;34.28;26.62;100853.28;4945404;27;99261;-70
2023/06/01 07:15:54;;;;;;;;;;;;;;;34.55;27.09;100850.53;4957774;27;98116;-70
2023/06/01 07:18:24;;;;;;;;;;;;;;;34.79;26.64;100847.78;4952766;27;97938;-67
2023/06/01 07:20:51;;;;;;;;;;;;;;;35.03;26.46;100852.19;4962908;27;97963;-67
2023/06/01 07:23:17;;;;;;;;;;;;;;;35.21;26.69;100837.84;4945064;27;98212;-70
2023/06/01 07:25:44;;;;;;;;;;;;;;;35.42;26.75;100836.69;4948520;27;98307;-70
2023/06/01 07:28:12;;;;;;;;;;;;;;;35.62;26.60;100837.50;4949217;28;98258;-68
2023/06/01 07:30:39;;;;;;;;;;;;;;;35.79;26.59;100824.34;4946564;27;98866;-67
2023/06/01 07:33:05;;;;;;;;;;;;;;;35.93;26.72;100826.06;4979409;27;98188;-67
2023/06/01 07:35:33;;;;;;;;;;;;;;;36.07;26.63;100816.56;4945205;27;99076;-67
2023/06/01 07:38:00;;;;;;;;;;;;;;;36.29;26.48;100814.09;4951045;27;98274;-70
2023/06/01 07:40:27;;;;;;;;;;;;;;;36.42;26.39;100814.19;4947225;28;98251;-70
2023/06/01 07:42:54;;;;;;;;;;;;;;;36.62;26.59;100809.31;4965019;27;98157;-70
2023/06/01 07:45:20;;;;;;;;;;;;;;;36.94;26.30;100814.13;4935065;28;98152;-70
2023/06/01 07:47:48;;;;;;;;;;;;;;;37.38;25.97;100808.97;4981024;27;98119;-68
2023/06/01 07:50:14;;;;;;;;;;;;;;;37.86;25.90;100806.41;4946570;27;99059;-68
2023/06/01 07:52:44;;;;;;;;;;;;;;;38.39;25.27;100804.78;4962701;27;98079;-68
2023/06/01 07:55:10;;;;;;;;;;;;;;;38.78;25.67;100794.25;4964951;27;98660;-70
2023/06/01 07:57:37;;;;;;;;;;;;;;;39.19;25.08;100804.53;4946372;27;98408;-67
2023/06/01 08:00:11;;;;;;;;;;;;;;;39.64;25.27;100794.84;4939699;27;99524;-67
2023/06/01 08:02:38;;;;;;;;;;;;;;;40.04;25.15;100799.00;4949079;27;98451;-68
2023/06/01 08:05:05;;;;;;;;;;;;;;;40.45;24.92;100798.56;4959990;27;99075;-68
2023/06/01 08:07:31;;;;;;;;;;;;;;;40.96;24.79;100800.09;4941581;28;98377;-68
2023/06/01 08:09:58;;;;;;;;;;;;;;;41.38;24.64;100797.41;4945650;27;98518;-70
2023/06/01 08:12:26;;;;;;;;;;;;;;;41.95;24.60;100804.56;4958241;27;98095;-68
2023/06/01 08:14:52;;;;;;;;;;;;;;;42.39;24.33;100796.38;4944421;27;98351;-71
2023/06/01 08:17:19;;;;;;;;;;;;;;;42.96;24.34;100793.50;4945372;28;98304;-68
2023/06/01 08:19:47;;;;;;;;;;;;;;;43.40;24.00;100792.03;4946190;28;98854;-70
2023/06/01 08:22:13;;;;;;;;;;;;;;;43.72;24.04;100793.13;4953012;28;99899;-71
2023/06/01 08:24:40;;;;;;;;;;;;;;;43.83;24.08;100787.63;4961759;27;97995;-71
2023/06/01 08:27:28;;;;;;;;;;;;;;;44.19;23.83;100786.41;4966649;27;98113;-71
2023/06/01 08:29:55;;;;;;;;;;;;;;;44.64;23.68;100777.72;4946282;27;98404;-68
2023/06/01 08:32:22;;;;;;;;;;;;;;;44.90;23.71;100781.44;4931101;27;98561;-73
2023/06/01 08:34:48;;;;;;;;;;;;;;;44.99;23.75;100777.66;4954609;27;98568;-72
2023/06/01 08:37:14;;;;;;;;;;;;;;;44.97;23.90;100771.72;4948103;27;98496;-72
2023/06/01 08:39:41;;;;;;;;;;;;;;;45.09;23.73;100767.72;4945078;27;98315;-70
2023/06/01 08:42:21;;;;;;;;;;;;;;;45.43;23.68;100774.53;4946584;28;99032;-70
2023/06/01 08:44:47;;;;;;;;;;;;;;;45.86;23.10;100768.19;4973236;27;98069;-72
2023/06/01 08:47:14;;;;;;;;;;;;;;;45.96;23.29;100769.56;4970393;27;98155;-69
2023/06/01 08:49:42;;;;;;;;;;;;;;;46.09;23.28;100769.13;4966663;28;98169;-72
2023/06/01 08:52:22;;;;;;;;;;;;;;;46.39;23.20;100764.66;4949453;27;98102;-71
2023/06/01 08:54:49;;;;;;;;;;;;;;;46.70;23.44;100751.63;4947541;27;98911;-74
2023/06/01 08:57:16;;;;;;;;;;;;;;;47.01;23.13;100767.78;4943436;27;98418;-73
2023/06/01 08:59:43;;;;;;;;;;;;;;;47.15;23.13;100758.22;4965991;27;98300;-74
2023/06/01 09:02:09;;;;;;;;;;;;;;;47.18;23.16;100760.03;4944072;28;99787;-74
2023/06/01 09:04:41;;;;;;;;;;;;;;;47.46;22.76;100754.38;4945192;27;98105;-73
2023/06/01 09:07:08;;;;;;;;;;;;;;;47.36;23.31;100741.69;4948218;27;98168;-73
2023/06/01 09:09:34;;;;;;;;;;;;;;;47.25;23.25;100738.00;4947189;27;98314;-73
2023/06/01 09:12:19;;;;;;;;;;;;;;;47.21;23.30;100733.34;4945751;27;98061;-74
2023/06/01 09:14:45;;;;;;;;;;;;;;;47.46;23.11;100733.63;4960102;27;98185;-70
2023/06/01 09:17:24;;;;;;;;;;;;;;;46.47;23.61;100731.56;4940838;27;99860;-71
2023/06/01 09:19:54;;;;;;;;;;;;;;;45.26;24.21;100736.63;4946975;27;121174;-73
2023/06/01 09:22:20;;;;;;;;;;;;;;;44.53;24.57;100730.88;4944107;28;98251;-71
2023/06/01 09:25:00;;;;;;;;;;;;;;;44.14;24.80;100729.53;4964701;27;98204;-70
2023/06/01 09:27:27;;;;;;;;;;;;;;;43.89;25.08;100726.09;4964154;27;98476;-70
2023/06/01 09:29:55;;;;;;;;;;;;;;;44.14;24.65;100726.69;4964614;27;98312;-73
2023/06/01 09:32:21;;;;;;;;;;;;;;;44.75;24.57;100726.75;4943284;27;97884;-70
2023/06/01 09:34:48;;;;;;;;;;;;;;;45.53;23.44;100732.47;4946264;28;99837;-73
2023/06/01 09:37:15;;;;;;;;;;;;;;;46.08;23.34;100719.16;4960077;27;98178;-74
2023/06/01 09:39:41;;;;;;;;;;;;;;;46.60;23.12;100718.94;4924901;27;98499;-74
2023/06/01 09:42:09;;;;;;;;;;;;;;;46.89;23.05;100723.41;4958976;27;99096;-71
2023/06/01 09:44:39;;;;;;;;;;;;;;;47.02;23.07;100722.94;4959416;27;98395;-73
2023/06/01 09:47:09;;;;;;;;;;;;;;;47.58;22.89;100720.13;4947718;27;97994;-70
2023/06/01 09:49:39;;;;;;;;;;;;;;;47.66;22.35;100712.59;4937621;27;97889;-75
2023/06/01 09:52:05;;;;;;;;;;;;;;;47.80;22.54;100710.81;4943891;28;98482;-71
2023/06/01 09:55:01;;;;;;;;;;;;;;;48.14;22.46;100711.50;4957278;28;98262;-74
2023/06/01 09:57:31;;;;;;;;;;;;;;;48.49;22.33;100705.13;4957142;27;98430;-71
2023/06/01 09:59:57;;;;;;;;;;;;;;;48.51;22.65;100707.47;4923746;27;98293;-74
2023/06/01 10:02:25;;;;;;;;;;;;;;;48.61;22.52;100700.13;4944892;27;98110;-74
2023/06/01 10:04:58;;;;;;;;;;;;;;;48.56;22.44;100695.25;4947528;27;98056;-75
2023/06/01 10:07:26;;;;;;;;;;;;;;;48.36;22.57;100691.41;4948787;27;98042;-71
2023/06/01 10:09:55;;;;;;;;;;;;;;;48.33;22.48;100689.59;4930587;28;98356;-71
2023/06/01 10:12:22;;;;;;;;;;;;;;;48.45;22.71;100689.56;4945010;28;98623;-74
2023/06/01 10:14:50;;;;;;;;;;;;;;;48.47;22.80;100684.13;4947753;27;98308;-73
2023/06/01 10:17:18;;;;;;;;;;;;;;;48.39;22.78;100686.72;4940992;27;98413;-74
2023/06/01 10:19:45;;;;;;;;;;;;;;;48.17;22.80;100682.66;4940369;27;98372;-70
2023/06/01 10:22:15;;;;;;;;;;;;;;;47.94;22.81;100681.16;4940092;27;98580;-71
2023/06/01 10:24:42;;;;;;;;;;;;;;;47.81;23.28;100675.25;4942847;27;98133;-74
2023/06/01 10:27:33;;;;;;;;;;;;;;;47.77;23.03;100672.66;4942729;27;98073;-74
2023/06/01 10:30:01;;;;;;;;;;;;;;;47.88;22.84;100671.84;4962625;27;98144;-75
2023/06/01 10:32:43;;;;;;;;;;;;;;;47.81;22.99;100658.88;4943827;28;97954;-74
2023/06/01 10:35:11;;;;;;;;;;;;;;;47.98;23.15;100660.91;4963454;27;98263;-71
2023/06/01 10:37:38;;;;;;;;;;;;;;;48.00;22.91;100661.16;4952838;27;98330;-71
2023/06/01 10:40:16;;;;;;;;;;;;;;;48.04;23.07;100658.81;4949825;27;98281;-74
2023/06/01 10:42:43;;;;;;;;;;;;;;;48.11;23.01;100656.22;4958893;27;99563;-74
2023/06/01 10:45:43;;;;;;;;;;;;;;;48.06;22.97;100653.38;4940313;27;98064;-75
2023/06/01 10:48:12;;;;;;;;;;;;;;;47.93;22.77;100651.84;4960542;27;98152;-71
2023/06/01 10:50:41;;;;;;;;;;;;;;;47.58;23.18;100646.72;4940739;28;97937;-75
2023/06/01 10:53:27;;;;;;;;;;;;;;;47.28;23.40;100645.69;4960925;27;98220;-71
2023/06/01 10:56:23;;;;;;;;;;;;;;;47.27;23.06;100644.16;4977052;27;98932;-74
2023/06/01 10:59:07;;;;;;;;;;;;;;;47.15;23.10;100649.06;4960891;27;99554;-74
2023/06/01 11:01:45;;;;;;;;;;;;;;;46.88;23.17;100639.19;4976973;27;98501;-70
2023/06/01 11:04:12;;;;;;;;;;;;;;;46.72;23.56;100635.78;4955320;28;98120;-71
2023/06/01 11:06:42;;;;;;;;;;;;;;;46.41;23.42;100635.97;4939161;28;98407;-73
2023/06/01 11:09:12;;;;;;;;;;;;;;;46.32;23.57;100636.97;4948202;27;98636;-71
2023/06/01 11:11:55;;;;;;;;;;;;;;;46.20;23.61;100632.53;4946736;28;98211;-74
2023/06/01 11:14:23;;;;;;;;;;;;;;;45.99;23.53;100638.38;4978221;27;98230;-74
2023/06/01 11:16:52;;;;;;;;;;;;;;;45.72;23.55;100641.84;4950391;28;98410;-75
2023/06/01 11:19:27;;;;;;;;;;;;;;;45.49;23.73;100632.38;4951819;27;98355;-71
2023/06/01 11:22:01;;;;;;;;;;;;;;;45.22;23.87;100625.16;4951522;27;98329;-71
2023/06/01 11:24:35;;;;;;;;;;;;;;;44.96;24.03;100620.28;4944574;27;98094;-74
2023/06/01 11:27:09;;;;;;;;;;;;;;;44.76;24.11;100623.19;4961751;27;98158;-74
2023/06/01 11:29:37;;;;;;;;;;;;;;;44.38;24.39;100610.91;4960365;27;98056;-71
2023/06/01 11:32:06;;;;;;;;;;;;;;;44.00;24.62;100620.47;4923984;27;98564;-71
2023/06/01 11:34:41;;;;;;;;;;;;;;;43.68;24.56;100614.59;4957342;28;98275;-71
2023/06/01 11:37:20;;;;;;;;;;;;;;;43.32;24.79;100613.78;4944862;27;98450;-74
2023/06/01 11:39:49;;;;;;;;;;;;;;;42.86;25.08;100611.44;4960246;27;98223;-71
2023/06/01 11:42:19;;;;;;;;;;;;;;;42.51;25.10;100602.00;4942813;27;98781;-71
2023/06/01 11:44:56;;;;;;;;;;;;;;;42.10;25.33;100610.97;4958412;28;98360;-74
2023/06/01 11:47:29;;;;;;;;;;;;;;;41.79;25.74;100604.84;4945400;27;98266;-75
2023/06/01 11:49:55;;;;;;;;;;;;;;;41.53;25.73;100601.69;4962581;27;98227;-74
2023/06/01 11:52:22;;;;;;;;;;;;;;;41.37;25.74;100597.97;4942766;27;98526;-75
2023/06/01 11:54:51;;;;;;;;;;;;;;;41.28;25.58;100602.88;4946414;27;98292;-74
2023/06/01 11:57:19;;;;;;;;;;;;;;;41.19;25.81;100600.88;4947363;28;97902;-69
2023/06/01 11:59:46;;;;;;;;;;;;;;;41.08;25.65;100597.78;4963844;27;97912;-71
2023/06/01 12:02:29;;;;;;;;;;;;;;;40.94;25.64;100590.69;4959549;27;98321;-75
2023/06/01 12:04:58;;;;;;;;;;;;;;;40.80;25.61;100586.50;4963561;27;98200;-74
2023/06/01 12:07:25;;;;;;;;;;;;;;;40.68;25.64;100593.91;4960042;27;98205;-70
2023/06/01 12:09:53;;;;;;;;;;;;;;;40.59;25.47;100591.06;4942661;27;98107;-70
2023/06/01 12:12:22;;;;;;;;;;;;;;;40.51;25.64;100581.34;4959118;27;98060;-74
2023/06/01 12:14:49;;;;;;;;;;;;;;;40.36;25.48;100583.22;4951989;27;98486;-69
2023/06/01 12:17:17;;;;;;;;;;;;;;;40.27;25.54;100580.41;4967626;27;98271;-70
2023/06/01 12:19:49;;;;;;;;;;;;;;;40.21;25.49;100574.63;4919739;28;100547;-75
2023/06/01 12:22:16;;;;;;;;;;;;;;;40.10;25.46;100575.03;4942573;27;98116;-74
2023/06/01 12:24:46;;;;;;;;;;;;;;;39.99;25.58;100575.50;4956246;28;99490;-75
2023/06/01 12:27:16;;;;;;;;;;;;;;;39.92;25.51;100566.56;4964229;27;99386;-71
2023/06/01 12:29:50;;;;;;;;;;;;;;;39.78;25.71;100565.13;4948377;27;98471;-70
2023/06/01 12:32:17;;;;;;;;;;;;;;;39.56;25.59;100581.31;4948576;27;99034;-74
2023/06/01 12:35:01;;;;;;;;;;;;;;;39.44;25.54;100574.56;4942484;27;98836;-70
2023/06/01 12:37:28;;;;;;;;;;;;;;;39.36;25.58;100565.59;4946861;27;98181;-75
2023/06/01 12:39:56;;;;;;;;;;;;;;;39.33;25.37;100562.94;4961740;27;98579;-71
2023/06/01 12:42:38;;;;;;;;;;;;;;;39.29;25.52;100563.06;4945721;27;101123;-71
2023/06/01 12:45:07;;;;;;;;;;;;;;;39.21;25.47;100565.34;4954005;27;98648;-71